Time;durP1;ratioP1;P1;durP2;ratioP2;P2;SDS_P1;SDS_P2;PMS_P1;PMS_P2;Temp;Humidity;BMP_temperature;BMP_pressure;BME280_temperature;BME280_humidity;BME280_pressure;Samples;Min_cycle;Max_cycle;Signal;HPM_P1;HPM_P2
2021/07/02 00:02:14;;;;;;;20.48;10.95;;;;;;;;;;4392016;32;20130;-80
2021/07/02 00:04:40;;;;;;;22.73;11.55;;;;;;;;;;4389933;32;20632;-80
2021/07/02 00:07:05;;;;;;;24.40;12.43;;;;;;;;;;4390314;32;20174;-81
2021/07/02 00:09:30;;;;;;;25.08;12.27;;;;;;;;;;4391112;32;20465;-81
2021/07/02 00:12:04;;;;;;;24.55;13.15;;;;;;;;;;4398471;32;20154;-81
2021/07/02 00:14:30;;;;;;;25.23;12.68;;;;;;;;;;4393102;32;20165;-80
2021/07/02 00:16:58;;;;;;;22.45;11.20;;;;;;;;;;4406526;32;20509;-80
2021/07/02 00:19:34;;;;;;;21.08;11.57;;;;;;;;;;4392019;32;20215;-80
2021/07/02 00:21:59;;;;;;;21.67;10.60;;;;;;;;;;4386107;32;20154;-80
2021/07/02 00:24:27;;;;;;;22.15;10.98;;;;;;;;;;4391034;32;20491;-80
2021/07/02 00:26:52;;;;;;;21.98;13.18;;;;;;;;;;4376598;32;20529;-80
2021/07/02 00:29:23;;;;;;;21.08;11.82;;;;;;;;;;4377071;32;20182;-80
2021/07/02 00:31:48;;;;;;;19.95;11.00;;;;;;;;;;4400219;32;20139;-80
2021/07/02 00:34:14;;;;;;;22.23;11.40;;;;;;;;;;4405955;32;20127;-81
2021/07/02 00:36:48;;;;;;;19.08;12.65;;;;;;;;;;4405929;32;20137;-80
2021/07/02 00:39:17;;;;;;;24.30;11.80;;;;;;;;;;4406261;32;20214;-80
2021/07/02 00:41:45;;;;;;;16.60;9.98;;;;;;;;;;4405907;32;20148;-80
2021/07/02 00:44:11;;;;;;;19.50;11.30;;;;;;;;;;4406088;32;20153;-81
2021/07/02 00:46:36;;;;;;;17.48;9.85;;;;;;;;;;4406387;32;20134;-80
2021/07/02 00:49:01;;;;;;;19.12;11.43;;;;;;;;;;4387147;32;20204;-80
2021/07/02 00:51:35;;;;;;;21.62;10.57;;;;;;;;;;4390421;32;20126;-80
2021/07/02 00:54:01;;;;;;;21.30;11.77;;;;;;;;;;4390629;32;20511;-80
2021/07/02 00:56:26;;;;;;;24.27;11.07;;;;;;;;;;4391943;32;20177;-81
2021/07/02 00:58:52;;;;;;;22.23;10.80;;;;;;;;;;4391287;32;20154;-80
2021/07/02 01:01:26;;;;;;;21.77;11.35;;;;;;;;;;4405106;32;20193;-80
2021/07/02 01:03:52;;;;;;;20.52;10.68;;;;;;;;;;4400771;32;20152;-80
2021/07/02 01:06:36;;;;;;;19.02;11.30;;;;;;;;;;4405182;32;20169;-80
2021/07/02 01:09:04;;;;;;;20.05;10.15;;;;;;;;;;4405287;32;20150;-80
2021/07/02 01:11:30;;;;;;;20.85;11.55;;;;;;;;;;4390309;32;20162;-81
2021/07/02 01:13:55;;;;;;;22.02;11.02;;;;;;;;;;4405665;32;20593;-80
2021/07/02 01:16:20;;;;;;;19.67;11.23;;;;;;;;;;4405611;32;20180;-80
2021/07/02 01:18:46;;;;;;;21.83;12.00;;;;;;;;;;4405860;32;20413;-80
2021/07/02 01:21:16;;;;;;;20.77;10.95;;;;;;;;;;4405188;32;20176;-80
2021/07/02 01:23:44;;;;;;;20.30;11.50;;;;;;;;;;4398966;32;20157;-80
2021/07/02 01:26:10;;;;;;;23.45;12.55;;;;;;;;;;4390303;32;20177;-80
2021/07/02 01:29:10;;;;;;;25.55;12.00;;;;;;;;;;4390246;32;20214;-80
2021/07/02 01:31:27;;;;;;;30.12;14.00;;;;;;;;;;4387973;32;20181;-81
2021/07/02 01:33:53;;;;;;;28.67;15.68;;;;;;;;;;4390221;32;20201;-80
2021/07/02 01:36:20;;;;;;;28.55;16.25;;;;;;;;;;4390258;32;20157;-80
2021/07/02 01:38:48;;;;;;;32.63;16.08;;;;;;;;;;4390105;32;20147;-80
2021/07/02 01:41:14;;;;;;;34.58;16.37;;;;;;;;;;4390456;32;20123;-80
2021/07/02 01:43:39;;;;;;;29.12;16.37;;;;;;;;;;4388764;32;20492;-80
2021/07/02 01:46:05;;;;;;;33.25;16.45;;;;;;;;;;4390041;32;20152;-81
2021/07/02 01:48:30;;;;;;;38.22;18.85;;;;;;;;;;4389924;32;20444;-80
2021/07/02 01:50:56;;;;;;;32.90;16.45;;;;;;;;;;4389869;32;20131;-81
2021/07/02 01:53:21;;;;;;;32.17;15.98;;;;;;;;;;4394160;32;20234;-80
2021/07/02 01:55:47;;;;;;;34.15;17.15;;;;;;;;;;4405448;32;20129;-81
2021/07/02 02:01:30;;;;;;;;;;;;;;;;;;;;;
2021/07/02 02:04:01;;;;;;;34.00;18.10;;;;;;;;;;4395406;32;20154;-80
2021/07/02 02:06:26;;;;;;;36.30;18.62;;;;;;;;;;4391873;32;20130;-80
2021/07/02 02:09:01;;;;;;;36.00;17.02;;;;;;;;;;4393169;32;20475;-80
2021/07/02 02:11:27;;;;;;;41.37;18.65;;;;;;;;;;4402962;32;20472;-80
2021/07/02 02:13:53;;;;;;;42.10;17.83;;;;;;;;;;4394630;32;20572;-80
2021/07/02 02:16:18;;;;;;;34.65;17.42;;;;;;;;;;4408164;32;20161;-81
2021/07/02 02:18:48;;;;;;;38.30;17.08;;;;;;;;;;4394625;32;20173;-80
2021/07/02 02:21:28;;;;;;;39.65;19.48;;;;;;;;;;4393861;32;20162;-81
2021/07/02 02:24:01;;;;;;;39.78;19.70;;;;;;;;;;4394154;32;20193;-80
2021/07/02 02:26:38;;;;;;;37.30;18.45;;;;;;;;;;4394236;32;20165;-81
2021/07/02 02:29:27;;;;;;;39.10;19.73;;;;;;;;;;4408407;32;20141;-81
2021/07/02 02:31:52;;;;;;;34.72;18.85;;;;;;;;;;4408038;32;20166;-81
2021/07/02 02:34:17;;;;;;;39.00;16.98;;;;;;;;;;4393888;32;20631;-80
2021/07/02 02:36:46;;;;;;;32.33;16.60;;;;;;;;;;4407420;32;20138;-80
2021/07/02 02:39:11;;;;;;;37.42;18.62;;;;;;;;;;4384948;32;20204;-81
2021/07/02 02:41:37;;;;;;;33.72;16.20;;;;;;;;;;4395001;32;20560;-81
2021/07/02 02:46:55;;;;;;;29.77;14.70;;;;;;;;;;4385228;32;20158;-81
2021/07/02 02:49:31;;;;;;;28.62;14.30;;;;;;;;;;4393513;32;20218;-80
2021/07/02 02:52:02;;;;;;;28.50;14.80;;;;;;;;;;4393627;32;20624;-80
2021/07/02 02:54:27;;;;;;;26.30;13.73;;;;;;;;;;4407571;32;20535;-80
2021/07/02 02:57:21;;;;;;;30.08;13.88;;;;;;;;;;4407574;32;20154;-80
2021/07/02 02:59:49;;;;;;;27.30;13.15;;;;;;;;;;4370281;32;20170;-81
2021/07/02 03:02:23;;;;;;;28.50;15.15;;;;;;;;;;4407161;32;20206;-81
2021/07/02 03:04:53;;;;;;;30.25;14.40;;;;;;;;;;4407771;32;20141;-81
2021/07/02 03:07:24;;;;;;;25.35;12.77;;;;;;;;;;4407793;32;20184;-81
2021/07/02 03:09:50;;;;;;;21.95;13.13;;;;;;;;;;4392857;32;20207;-81
2021/07/02 03:12:15;;;;;;;24.85;13.45;;;;;;;;;;4407764;32;20138;-81
2021/07/02 03:14:40;;;;;;;26.50;13.73;;;;;;;;;;4395363;32;20217;-81
2021/07/02 03:17:08;;;;;;;25.45;12.48;;;;;;;;;;4391030;32;20180;-81
2021/07/02 03:19:36;;;;;;;21.80;12.27;;;;;;;;;;4392084;32;20184;-81
2021/07/02 03:22:11;;;;;;;18.60;10.65;;;;;;;;;;4392363;32;20139;-81
2021/07/02 03:24:51;;;;;;;20.50;11.40;;;;;;;;;;4392401;32;20134;-80
2021/07/02 03:27:31;;;;;;;18.42;10.23;;;;;;;;;;4391973;32;20168;-81
2021/07/02 03:29:56;;;;;;;16.55;10.10;;;;;;;;;;4403817;32;20494;-80
2021/07/02 03:32:28;;;;;;;15.77;9.55;;;;;;;;;;4406521;32;20142;-79
2021/07/02 03:34:53;;;;;;;16.77;9.73;;;;;;;;;;4407379;32;20165;-80
2021/07/02 03:37:18;;;;;;;17.55;11.75;;;;;;;;;;4406602;32;20447;-80
2021/07/02 03:39:44;;;;;;;23.25;11.73;;;;;;;;;;4406502;32;20589;-81
2021/07/02 03:42:10;;;;;;;17.12;11.88;;;;;;;;;;4406904;32;20145;-81
2021/07/02 03:44:46;;;;;;;23.38;13.27;;;;;;;;;;4393126;32;20158;-80
2021/07/02 03:47:16;;;;;;;23.83;12.70;;;;;;;;;;4407144;32;20133;-80
2021/07/02 03:49:42;;;;;;;23.08;14.30;;;;;;;;;;4406284;32;20146;-80
2021/07/02 03:52:10;;;;;;;32.67;15.57;;;;;;;;;;4392855;32;20223;-80
2021/07/02 03:54:35;;;;;;;31.37;17.05;;;;;;;;;;4406551;32;20177;-80
2021/07/02 03:57:13;;;;;;;33.38;18.40;;;;;;;;;;4407221;32;20535;-82
2021/07/02 04:00:07;;;;;;;;;;;;;;;;;;;;;
2021/07/02 04:02:29;;;;;;;37.20;18.62;;;;;;;;;;4404535;32;20224;-81
2021/07/02 04:04:54;;;;;;;32.92;18.58;;;;;;;;;;4406077;32;20557;-81
2021/07/02 04:07:42;;;;;;;34.67;18.83;;;;;;;;;;4392840;32;20208;-81
2021/07/02 04:10:08;;;;;;;41.30;19.98;;;;;;;;;;4387109;32;20181;-81
2021/07/02 04:12:36;;;;;;;39.13;18.92;;;;;;;;;;4406352;32;20154;-81
2021/07/02 04:15:09;;;;;;;39.97;21.45;;;;;;;;;;4392240;32;20165;-82
2021/07/02 04:17:37;;;;;;;43.75;20.75;;;;;;;;;;4406527;32;20130;-80
2021/07/02 04:20:11;;;;;;;35.75;17.85;;;;;;;;;;4406098;32;20201;-80
2021/07/02 04:22:37;;;;;;;38.33;20.20;;;;;;;;;;4406719;32;20207;-81
2021/07/02 04:25:06;;;;;;;40.03;21.50;;;;;;;;;;4405763;32;20207;-80
2021/07/02 04:27:35;;;;;;;36.85;19.70;;;;;;;;;;4405911;32;20475;-80
2021/07/02 04:30:02;;;;;;;44.30;19.48;;;;;;;;;;4405873;32;20203;-82
2021/07/02 04:32:30;;;;;;;40.35;22.62;;;;;;;;;;4405771;32;20138;-81
2021/07/02 04:34:55;;;;;;;44.05;22.80;;;;;;;;;;4400509;32;20150;-82
2021/07/02 04:37:28;;;;;;;44.42;21.60;;;;;;;;;;4389440;32;20646;-81
2021/07/02 04:39:53;;;;;;;46.78;21.60;;;;;;;;;;4391353;32;20141;-81
2021/07/02 04:42:19;;;;;;;37.22;18.42;;;;;;;;;;4390426;32;20146;-81
2021/07/02 04:44:44;;;;;;;43.92;20.73;;;;;;;;;;4390170;32;20219;-81
2021/07/02 04:47:09;;;;;;;45.85;21.77;;;;;;;;;;4390649;32;20138;-78
2021/07/02 04:49:37;;;;;;;45.40;23.30;;;;;;;;;;4390442;32;20626;-81
2021/07/02 04:52:02;;;;;;;42.55;22.50;;;;;;;;;;4390391;32;20146;-81
2021/07/02 04:54:27;;;;;;;45.17;24.12;;;;;;;;;;4389203;32;20538;-80
2021/07/02 04:56:53;;;;;;;52.13;23.17;;;;;;;;;;4390529;32;20150;-81
2021/07/02 04:59:26;;;;;;;44.20;20.58;;;;;;;;;;4389984;32;20142;-82
2021/07/02 05:01:51;;;;;;;43.45;22.10;;;;;;;;;;4389958;32;20212;-81
2021/07/02 05:04:43;;;;;;;50.50;21.60;;;;;;;;;;4405784;32;20138;-81
2021/07/02 05:07:09;;;;;;;52.35;20.55;;;;;;;;;;4399021;32;20269;-80
2021/07/02 05:09:35;;;;;;;51.65;21.42;;;;;;;;;;4405145;32;20161;-80
2021/07/02 05:12:00;;;;;;;51.50;20.50;;;;;;;;;;4405510;32;20269;-81
2021/07/02 05:14:33;;;;;;;53.42;21.95;;;;;;;;;;4391463;32;20185;-80
2021/07/02 05:17:04;;;;;;;64.55;28.08;;;;;;;;;;4391585;32;20209;-80
2021/07/02 05:19:30;;;;;;;58.50;22.62;;;;;;;;;;4405382;32;20168;-81
2021/07/02 05:21:55;;;;;;;49.90;22.42;;;;;;;;;;4404947;32;20150;-80
2021/07/02 05:24:20;;;;;;;54.33;22.35;;;;;;;;;;4391687;32;20219;-81
2021/07/02 05:26:45;;;;;;;57.97;24.50;;;;;;;;;;4405166;32;20209;-80
2021/07/02 05:29:11;;;;;;;54.25;24.48;;;;;;;;;;4405265;32;20184;-80
2021/07/02 05:31:36;;;;;;;52.08;21.92;;;;;;;;;;4405714;32;20134;-80
2021/07/02 05:34:01;;;;;;;52.10;23.95;;;;;;;;;;4404781;32;20135;-81
2021/07/02 05:36:27;;;;;;;52.47;21.20;;;;;;;;;;4399810;32;20150;-82
2021/07/02 05:38:52;;;;;;;53.63;23.30;;;;;;;;;;4390007;32;20139;-81
2021/07/02 05:41:17;;;;;;;52.42;23.33;;;;;;;;;;4391041;32;20615;-81
2021/07/02 05:43:42;;;;;;;50.17;23.87;;;;;;;;;;4400804;32;20151;-82
2021/07/02 05:46:08;;;;;;;58.05;24.30;;;;;;;;;;4397794;32;20304;-82
2021/07/02 05:48:33;;;;;;;52.05;22.95;;;;;;;;;;4398706;32;20146;-81
2021/07/02 05:50:59;;;;;;;59.97;27.48;;;;;;;;;;4391766;32;20166;-81
2021/07/02 05:53:33;;;;;;;57.40;24.37;;;;;;;;;;4392648;32;20508;-81
2021/07/02 05:55:58;;;;;;;58.80;24.12;;;;;;;;;;4393026;32;20192;-82
2021/07/02 05:58:23;;;;;;;51.72;23.10;;;;;;;;;;4391446;32;20513;-81
2021/07/02 06:00:49;;;;;;;62.62;27.58;;;;;;;;;;4391369;32;20499;-81
2021/07/02 06:03:23;;;;;;;53.63;23.62;;;;;;;;;;4404268;32;20180;-81
2021/07/02 06:05:48;;;;;;;51.37;23.85;;;;;;;;;;4393773;32;20551;-83
2021/07/02 06:08:15;;;;;;;57.25;24.60;;;;;;;;;;4394179;32;20188;-81
2021/07/02 06:10:40;;;;;;;52.03;23.85;;;;;;;;;;4393940;32;20245;-81
2021/07/02 06:13:12;;;;;;;60.55;26.45;;;;;;;;;;4393976;32;20185;-81
2021/07/02 06:15:56;;;;;;;57.58;26.12;;;;;;;;;;4407309;32;20230;-81
2021/07/02 06:18:22;;;;;;;58.10;26.30;;;;;;;;;;4391495;32;20158;-82
2021/07/02 06:20:51;;;;;;;61.03;25.62;;;;;;;;;;4392372;32;20158;-81
2021/07/02 06:23:17;;;;;;;50.33;23.83;;;;;;;;;;4387616;32;20158;-82
2021/07/02 06:25:42;;;;;;;57.90;25.65;;;;;;;;;;4396346;32;20138;-82
2021/07/02 06:28:10;;;;;;;53.10;23.17;;;;;;;;;;4391720;32;20174;-83
2021/07/02 06:30:35;;;;;;;62.85;27.62;;;;;;;;;;4391930;32;20596;-80
2021/07/02 06:33:01;;;;;;;54.95;26.55;;;;;;;;;;4380427;32;20219;-82
2021/07/02 06:35:26;;;;;;;48.10;24.52;;;;;;;;;;4397873;32;20161;-84
2021/07/02 06:37:51;;;;;;;49.83;25.67;;;;;;;;;;4383397;32;20155;-81
2021/07/02 06:40:18;;;;;;;60.78;28.83;;;;;;;;;;4407290;32;20130;-82
2021/07/02 06:42:43;;;;;;;52.45;25.17;;;;;;;;;;4406290;32;20158;-82
2021/07/02 06:45:11;;;;;;;53.70;25.60;;;;;;;;;;4400749;32;20157;-82
2021/07/02 06:47:50;;;;;;;57.33;27.30;;;;;;;;;;4404332;32;20139;-81
2021/07/02 06:50:15;;;;;;;52.50;23.58;;;;;;;;;;4407693;32;20396;-81
2021/07/02 06:52:41;;;;;;;46.88;23.80;;;;;;;;;;4399900;32;20172;-82
2021/07/02 06:55:10;;;;;;;47.83;25.30;;;;;;;;;;4407149;32;20199;-82
2021/07/02 06:57:35;;;;;;;46.50;24.10;;;;;;;;;;4393116;32;20166;-81
2021/07/02 07:00:03;;;;;;;45.42;22.73;;;;;;;;;;4386317;32;20603;-82
2021/07/02 07:02:31;;;;;;;40.15;21.70;;;;;;;;;;4398222;32;20201;-81
2021/07/02 07:04:57;;;;;;;46.47;24.45;;;;;;;;;;4392420;32;20500;-82
2021/07/02 07:07:22;;;;;;;42.50;23.65;;;;;;;;;;4390155;32;20238;-83
2021/07/02 07:09:48;;;;;;;44.10;24.12;;;;;;;;;;4393929;32;20232;-83
2021/07/02 07:12:13;;;;;;;42.10;23.15;;;;;;;;;;4401538;32;20185;-83
2021/07/02 07:14:49;;;;;;;35.80;19.73;;;;;;;;;;4396128;32;20451;-82
2021/07/02 07:17:29;;;;;;;42.20;22.23;;;;;;;;;;4398539;32;20145;-82
2021/07/02 07:20:04;;;;;;;34.47;19.98;;;;;;;;;;4389453;32;20162;-83
2021/07/02 07:22:32;;;;;;;35.90;20.35;;;;;;;;;;4378323;32;20166;-84
2021/07/02 07:25:00;;;;;;;36.42;20.83;;;;;;;;;;4406107;32;20513;-83
2021/07/02 07:27:53;;;;;;;36.75;20.77;;;;;;;;;;4407465;32;20162;-83
2021/07/02 07:30:19;;;;;;;39.58;21.62;;;;;;;;;;4392433;32;20178;-83
2021/07/02 07:33:01;;;;;;;35.60;19.75;;;;;;;;;;4391174;32;20197;-83
2021/07/02 07:35:53;;;;;;;27.42;17.12;;;;;;;;;;4392181;32;20134;-82
2021/07/02 07:38:19;;;;;;;35.38;19.25;;;;;;;;;;4385578;32;20197;-82
2021/07/02 07:40:44;;;;;;;26.15;16.50;;;;;;;;;;4391513;32;20300;-83
2021/07/02 07:43:10;;;;;;;29.80;16.20;;;;;;;;;;4389953;32;20197;-83
2021/07/02 07:45:42;;;;;;;27.52;14.40;;;;;;;;;;4392053;32;20134;-82
2021/07/02 07:48:10;;;;;;;22.75;13.75;;;;;;;;;;4390500;32;20158;-83
2021/07/02 07:50:42;;;;;;;19.90;12.37;;;;;;;;;;4390444;32;20244;-82
2021/07/02 07:53:09;;;;;;;19.92;10.73;;;;;;;;;;4391423;32;20444;-82
2021/07/02 07:55:37;;;;;;;24.85;12.55;;;;;;;;;;4391251;32;20137;-81
2021/07/02 07:58:03;;;;;;;15.60;10.68;;;;;;;;;;4391403;32;20142;-82
2021/07/02 08:00:30;;;;;;;16.55;9.95;;;;;;;;;;4391281;32;20197;-82
2021/07/02 08:02:56;;;;;;;20.83;11.40;;;;;;;;;;4388562;32;20257;-82
2021/07/02 08:05:25;;;;;;;17.73;10.73;;;;;;;;;;4389933;32;20185;-82
2021/07/02 08:07:55;;;;;;;21.05;10.82;;;;;;;;;;4390774;32;20517;-82
2021/07/02 08:10:26;;;;;;;19.17;11.52;;;;;;;;;;4389352;32;20174;-83
2021/07/02 08:12:52;;;;;;;16.65;9.65;;;;;;;;;;4390869;32;20185;-82
2021/07/02 08:15:17;;;;;;;15.02;9.23;;;;;;;;;;4391154;32;20134;-83
2021/07/02 08:17:52;;;;;;;23.92;14.63;;;;;;;;;;4391143;32;20139;-82
2021/07/02 08:20:20;;;;;;;18.33;9.85;;;;;;;;;;4389918;32;20169;-83
2021/07/02 08:22:46;;;;;;;18.10;9.63;;;;;;;;;;4390978;32;20143;-79
2021/07/02 08:25:14;;;;;;;19.15;9.90;;;;;;;;;;4389441;32;20178;-82
2021/07/02 08:30:30;;;;;;;27.62;15.95;;;;;;;;;;4390688;32;20146;-83
2021/07/02 08:32:56;;;;;;;20.35;9.43;;;;;;;;;;4390966;32;20190;-82
2021/07/02 08:35:48;;;;;;;12.43;8.15;;;;;;;;;;4390782;32;20133;-82
2021/07/02 08:38:14;;;;;;;14.25;9.23;;;;;;;;;;4391121;32;20142;-83
2021/07/02 08:44:27;;;;;;;12.27;7.75;;;;;;;;;;4336046;32;20222;-81
2021/07/02 08:46:55;;;;;;;17.20;9.00;;;;;;;;;;4390653;32;20164;-82
2021/07/02 08:49:55;;;;;;;16.65;10.40;;;;;;;;;;4390550;32;20154;-82
2021/07/02 08:52:37;;;;;;;13.75;8.68;;;;;;;;;;4390749;32;20181;-81
2021/07/02 08:55:08;;;;;;;15.95;8.77;;;;;;;;;;4390823;32;20176;-82
2021/07/02 08:57:42;;;;;;;15.68;8.35;;;;;;;;;;4391024;32;20134;-82
2021/07/02 09:00:11;;;;;;;15.00;7.82;;;;;;;;;;4390645;32;20137;-83
2021/07/02 09:03:07;;;;;;;13.40;8.05;;;;;;;;;;4390006;32;20249;-82
2021/07/02 09:05:34;;;;;;;11.15;7.35;;;;;;;;;;4390642;32;20150;-81
2021/07/02 09:08:32;;;;;;;11.57;7.82;;;;;;;;;;4388798;32;20170;-83
2021/07/02 09:11:03;;;;;;;15.52;8.27;;;;;;;;;;4390154;32;20214;-83
2021/07/02 09:14:03;;;;;;;14.15;9.35;;;;;;;;;;4390738;32;20163;-82
2021/07/02 09:16:47;;;;;;;15.80;9.70;;;;;;;;;;4350258;32;20667;-82
2021/07/02 09:19:45;;;;;;;12.25;7.62;;;;;;;;;;4390389;32;20219;-82
2021/07/02 09:22:18;;;;;;;11.98;8.00;;;;;;;;;;4343559;33;20728;-82
2021/07/02 09:24:51;;;;;;;10.82;7.03;;;;;;;;;;4331752;32;20206;-82
2021/07/02 09:27:34;;;;;;;11.57;7.22;;;;;;;;;;4385299;32;20576;-82
2021/07/02 09:29:59;;;;;;;11.60;6.65;;;;;;;;;;4405213;32;20580;-81
2021/07/02 09:32:25;;;;;;;8.68;6.35;;;;;;;;;;4405080;32;20138;-82
2021/07/02 09:35:07;;;;;;;14.65;7.62;;;;;;;;;;4404860;32;20126;-82
2021/07/02 09:37:51;;;;;;;12.50;7.72;;;;;;;;;;4391417;32;20150;-81
2021/07/02 09:40:37;;;;;;;11.63;6.82;;;;;;;;;;4405234;32;20637;-82
2021/07/02 09:43:02;;;;;;;9.82;6.55;;;;;;;;;;4404749;32;20472;-82
2021/07/02 09:45:34;;;;;;;12.65;6.95;;;;;;;;;;4405313;32;20161;-83
2021/07/02 09:48:15;;;;;;;12.15;7.20;;;;;;;;;;4405153;32;20166;-82
2021/07/02 09:50:44;;;;;;;10.93;6.60;;;;;;;;;;4391066;32;20149;-81
2021/07/02 09:53:16;;;;;;;11.20;7.03;;;;;;;;;;4405130;32;20160;-80
2021/07/02 09:55:43;;;;;;;10.05;6.22;;;;;;;;;;4404685;32;20554;-81
2021/07/02 09:58:15;;;;;;;9.07;6.68;;;;;;;;;;4405718;32;20189;-81
2021/07/02 10:00:41;;;;;;;10.45;6.72;;;;;;;;;;4390847;32;20154;-82
2021/07/02 10:03:12;;;;;;;12.00;6.47;;;;;;;;;;4404975;32;20201;-81
2021/07/02 10:05:43;;;;;;;11.63;7.10;;;;;;;;;;4404763;32;20134;-81
2021/07/02 10:08:21;;;;;;;13.55;8.18;;;;;;;;;;4405278;32;20131;-81
2021/07/02 10:10:56;;;;;;;10.98;8.38;;;;;;;;;;4404818;32;20570;-82
2021/07/02 10:13:26;;;;;;;11.00;7.68;;;;;;;;;;4404804;32;20157;-81
2021/07/02 10:15:52;;;;;;;12.98;8.27;;;;;;;;;;4405415;32;20130;-81
2021/07/02 10:18:31;;;;;;;14.00;7.57;;;;;;;;;;4405053;32;20142;-81
2021/07/02 10:21:06;;;;;;;12.80;8.20;;;;;;;;;;4391005;32;20202;-82
2021/07/02 10:23:35;;;;;;;12.07;7.30;;;;;;;;;;4404871;32;20127;-82
2021/07/02 10:26:05;;;;;;;12.05;8.32;;;;;;;;;;4391245;32;20146;-80
2021/07/02 10:28:36;;;;;;;15.43;9.55;;;;;;;;;;4394087;32;20578;-82
2021/07/02 10:31:02;;;;;;;11.15;6.60;;;;;;;;;;4384123;32;20522;-81
2021/07/02 10:33:37;;;;;;;12.60;8.40;;;;;;;;;;4378730;32;20154;-82
2021/07/02 10:36:03;;;;;;;11.23;7.70;;;;;;;;;;4378532;32;20646;-81
2021/07/02 10:38:34;;;;;;;13.30;7.62;;;;;;;;;;4392172;32;20208;-81
2021/07/02 10:41:20;;;;;;;15.23;9.98;;;;;;;;;;4401204;32;20172;-81
2021/07/02 10:44:11;;;;;;;14.05;8.27;;;;;;;;;;4391428;32;20288;-81
2021/07/02 10:46:36;;;;;;;14.15;7.87;;;;;;;;;;4407592;32;20191;-83
2021/07/02 10:49:06;;;;;;;11.32;7.85;;;;;;;;;;4393329;32;20163;-81
2021/07/02 10:51:42;;;;;;;13.93;8.57;;;;;;;;;;4407460;32;20133;-81
2021/07/02 10:54:20;;;;;;;14.68;8.77;;;;;;;;;;4408851;32;20165;-82
2021/07/02 10:56:49;;;;;;;16.55;8.70;;;;;;;;;;4408500;32;20261;-82
2021/07/02 10:59:15;;;;;;;15.27;8.98;;;;;;;;;;4406872;32;20130;-82
2021/07/02 11:01:58;;;;;;;15.68;8.10;;;;;;;;;;4406941;32;20164;-81
2021/07/02 11:04:43;;;;;;;13.27;8.68;;;;;;;;;;4393278;32;20158;-82
2021/07/02 11:07:08;;;;;;;12.10;6.80;;;;;;;;;;4393343;32;20162;-81
2021/07/02 11:10:15;;;;;;;13.43;8.90;;;;;;;;;;4387720;32;20167;-82
2021/07/02 11:12:44;;;;;;;14.18;8.52;;;;;;;;;;4326398;33;20500;-82
2021/07/02 11:15:15;;;;;;;15.32;8.88;;;;;;;;;;4373599;32;20158;-82
2021/07/02 11:17:44;;;;;;;11.80;8.48;;;;;;;;;;4391517;32;20198;-82
2021/07/02 11:20:13;;;;;;;14.65;8.38;;;;;;;;;;4391639;32;20628;-82
2021/07/02 11:22:38;;;;;;;12.82;8.40;;;;;;;;;;4386148;32;20214;-81
2021/07/02 11:25:11;;;;;;;15.55;8.90;;;;;;;;;;4372347;32;20632;-82
2021/07/02 11:28:01;;;;;;;17.62;9.85;;;;;;;;;;4387858;32;20143;-82
2021/07/02 11:30:37;;;;;;;10.13;6.65;;;;;;;;;;4386027;32;20170;-81
2021/07/02 11:33:03;;;;;;;9.90;6.47;;;;;;;;;;4376311;32;20188;-81
2021/07/02 11:35:36;;;;;;;11.75;7.80;;;;;;;;;;4387509;32;20653;-81
2021/07/02 11:38:01;;;;;;;11.60;7.45;;;;;;;;;;4390622;32;20131;-81
2021/07/02 11:40:46;;;;;;;12.13;7.47;;;;;;;;;;4389793;32;20253;-81
2021/07/02 11:43:32;;;;;;;11.25;7.70;;;;;;;;;;4390967;32;20238;-81
2021/07/02 11:46:00;;;;;;;12.05;7.82;;;;;;;;;;4380296;32;20166;-83
2021/07/02 11:48:25;;;;;;;13.77;8.05;;;;;;;;;;4385353;32;20221;-81
2021/07/02 11:51:01;;;;;;;15.68;8.85;;;;;;;;;;4380869;32;20130;-82
2021/07/02 11:53:32;;;;;;;15.18;9.48;;;;;;;;;;4365650;32;20686;-82
2021/07/02 11:56:01;;;;;;;15.90;8.70;;;;;;;;;;4386124;32;20208;-81
2021/07/02 11:58:30;;;;;;;9.70;7.20;;;;;;;;;;4370449;32;20182;-81
2021/07/02 12:00:57;;;;;;;10.60;6.95;;;;;;;;;;4388234;32;20150;-80
2021/07/02 12:03:25;;;;;;;9.10;5.90;;;;;;;;;;4384581;32;20444;-82
2021/07/02 12:05:53;;;;;;;10.02;6.78;;;;;;;;;;4383707;32;20618;-81
2021/07/02 12:08:20;;;;;;;11.02;7.20;;;;;;;;;;4389537;32;20150;-82
2021/07/02 12:10:53;;;;;;;9.48;6.30;;;;;;;;;;4376870;32;20162;-80
2021/07/02 12:13:25;;;;;;;11.55;6.47;;;;;;;;;;4396025;32;20218;-80
2021/07/02 12:16:07;;;;;;;12.88;8.32;;;;;;;;;;4398765;32;20173;-82
2021/07/02 12:18:32;;;;;;;11.70;7.85;;;;;;;;;;4398520;32;20187;-81
2021/07/02 12:21:02;;;;;;;11.65;8.20;;;;;;;;;;4391804;32;20166;-79
2021/07/02 12:23:34;;;;;;;13.48;8.02;;;;;;;;;;4390534;32;20217;-81
2021/07/02 12:26:33;;;;;;;13.57;9.10;;;;;;;;;;4392242;32;20561;-82
2021/07/02 12:29:03;;;;;;;12.10;9.65;;;;;;;;;;4393774;32;20544;-81
2021/07/02 12:31:55;;;;;;;14.00;8.85;;;;;;;;;;4394651;32;20239;-82
2021/07/02 12:34:22;;;;;;;13.95;9.18;;;;;;;;;;4387914;32;20158;-81
2021/07/02 12:36:58;;;;;;;13.52;8.90;;;;;;;;;;4389919;32;20151;-81
2021/07/02 12:39:30;;;;;;;13.23;8.63;;;;;;;;;;4405103;32;20731;-81
2021/07/02 12:41:55;;;;;;;14.10;9.00;;;;;;;;;;4403548;32;20139;-81
2021/07/02 12:44:24;;;;;;;13.10;8.27;;;;;;;;;;4392103;32;20134;-81
2021/07/02 12:46:50;;;;;;;11.57;7.65;;;;;;;;;;4403409;32;20644;-79
2021/07/02 12:49:16;;;;;;;11.73;8.38;;;;;;;;;;4386490;32;20158;-81
2021/07/02 12:54:53;;;;;;;11.38;8.38;;;;;;;;;;4397927;32;20137;-81
2021/07/02 12:57:21;;;;;;;13.55;8.23;;;;;;;;;;4404769;32;20146;-80
2021/07/02 12:59:48;;;;;;;10.98;7.95;;;;;;;;;;4401987;32;20173;-81
2021/07/02 13:02:24;;;;;;;11.00;9.30;;;;;;;;;;4389301;32;20150;-82
2021/07/02 13:04:49;;;;;;;12.73;9.52;;;;;;;;;;4390673;32;20570;-80
2021/07/02 13:07:15;;;;;;;17.70;11.95;;;;;;;;;;4389802;32;20134;-80
2021/07/02 13:09:40;;;;;;;14.02;10.05;;;;;;;;;;4396268;32;20131;-80
2021/07/02 13:12:12;;;;;;;14.00;10.48;;;;;;;;;;4389807;32;20196;-82
2021/07/02 13:14:41;;;;;;;15.88;11.45;;;;;;;;;;4391481;32;20146;-80
2021/07/02 13:17:06;;;;;;;16.15;12.07;;;;;;;;;;4391171;32;20545;-81
2021/07/02 13:19:37;;;;;;;13.65;11.50;;;;;;;;;;4404892;32;20217;-79
2021/07/02 13:22:23;;;;;;;10.80;9.65;;;;;;;;;;4405105;32;20138;-82
2021/07/02 13:24:48;;;;;;;15.63;12.25;;;;;;;;;;4404729;32;20291;-81
2021/07/02 13:27:23;;;;;;;11.75;9.70;;;;;;;;;;4391206;32;20571;-82
2021/07/02 13:29:59;;;;;;;11.75;9.40;;;;;;;;;;4405349;32;20608;-83
2021/07/02 13:32:27;;;;;;;14.32;10.63;;;;;;;;;;4405516;32;20173;-81
2021/07/02 13:34:53;;;;;;;15.38;11.85;;;;;;;;;;4402141;32;20138;-82
2021/07/02 13:37:25;;;;;;;14.13;10.32;;;;;;;;;;4397975;32;20169;-80
2021/07/02 13:39:53;;;;;;;14.55;9.32;;;;;;;;;;4405012;32;20181;-83
2021/07/02 13:42:27;;;;;;;16.42;10.27;;;;;;;;;;4404592;32;20178;-82
2021/07/02 13:44:53;;;;;;;13.57;10.07;;;;;;;;;;4405263;32;20461;-83
2021/07/02 13:47:24;;;;;;;13.43;9.43;;;;;;;;;;4392899;32;20186;-82
2021/07/02 13:49:52;;;;;;;12.60;9.25;;;;;;;;;;4403768;32;20296;-85
2021/07/02 13:52:20;;;;;;;14.32;10.50;;;;;;;;;;4391655;32;20574;-78
2021/07/02 13:54:46;;;;;;;15.52;10.40;;;;;;;;;;4390426;32;20548;-82
2021/07/02 13:57:11;;;;;;;12.43;9.18;;;;;;;;;;4396882;32;20301;-81
2021/07/02 13:59:37;;;;;;;12.13;8.98;;;;;;;;;;4391317;32;20582;-80
2021/07/02 14:02:03;;;;;;;13.20;8.95;;;;;;;;;;4393679;32;20188;-80
2021/07/02 14:04:31;;;;;;;16.35;10.55;;;;;;;;;;4393958;32;20590;-80
2021/07/02 14:07:02;;;;;;;13.25;8.75;;;;;;;;;;4395273;32;20145;-80
2021/07/02 14:09:42;;;;;;;11.85;8.70;;;;;;;;;;4394382;32;20162;-83
2021/07/02 14:12:11;;;;;;;13.45;9.60;;;;;;;;;;4392818;32;20169;-83
2021/07/02 14:14:36;;;;;;;14.18;9.13;;;;;;;;;;4398065;32;20179;-80
2021/07/02 14:17:03;;;;;;;14.80;10.07;;;;;;;;;;4403962;32;20544;-82
2021/07/02 14:19:31;;;;;;;13.88;9.45;;;;;;;;;;4381671;32;20180;-81
2021/07/02 14:21:56;;;;;;;15.57;11.30;;;;;;;;;;4391426;32;20165;-82
2021/07/02 14:24:21;;;;;;;12.80;9.07;;;;;;;;;;4405230;32;20134;-81
2021/07/02 14:26:49;;;;;;;16.25;10.23;;;;;;;;;;4388484;32;20524;-81
2021/07/02 14:29:23;;;;;;;13.13;9.38;;;;;;;;;;4403727;32;20142;-81
2021/07/02 14:32:06;;;;;;;12.10;8.80;;;;;;;;;;4387825;32;20620;-81
2021/07/02 14:34:32;;;;;;;14.90;9.80;;;;;;;;;;4384014;32;20623;-81
2021/07/02 14:37:00;;;;;;;16.15;9.82;;;;;;;;;;4401302;32;20142;-81
2021/07/02 14:39:25;;;;;;;12.55;8.70;;;;;;;;;;4406758;32;20192;-80
2021/07/02 14:41:50;;;;;;;13.98;8.70;;;;;;;;;;4405956;32;20138;-81
2021/07/02 14:44:16;;;;;;;16.80;9.80;;;;;;;;;;4393240;32;20153;-80
2021/07/02 14:46:44;;;;;;;12.88;8.77;;;;;;;;;;4407772;32;20127;-81
2021/07/02 14:49:09;;;;;;;14.10;9.35;;;;;;;;;;4405090;32;20198;-80
2021/07/02 14:51:34;;;;;;;16.65;9.38;;;;;;;;;;4392379;32;20192;-80
2021/07/02 14:54:04;;;;;;;14.63;9.18;;;;;;;;;;4391982;32;20500;-80
2021/07/02 14:56:35;;;;;;;13.57;10.25;;;;;;;;;;4391799;32;20260;-82
2021/07/02 14:59:00;;;;;;;12.63;9.65;;;;;;;;;;4377996;32;20158;-82